sensor_id;sensor_type;location;lat;lon;timestamp;P1;P2;P0
70915;PMS5003;58557;50.982;-3.222;2023-02-22T00:02:16;40;40;
70915;PMS5003;58557;50.982;-3.222;2023-02-22T00:04:42;46;42;
70915;PMS5003;58557;50.982;-3.222;2023-02-22T00:07:07;54;44;
70915;PMS5003;58557;50.982;-3.222;2023-02-22T00:09:32;48;45;
70915;PMS5003;58557;50.982;-3.222;2023-02-22T00:11:57;54;52;
70915;PMS5003;58557;50.982;-3.222;2023-02-22T00:14:23;56;49;
70915;PMS5003;58557;50.982;-3.222;2023-02-22T00:16:48;49;44;
70915;PMS5003;58557;50.982;-3.222;2023-02-22T00:19:14;57;52;
70915;PMS5003;58557;50.982;-3.222;2023-02-22T00:21:39;59;50;
70915;PMS5003;58557;50.982;-3.222;2023-02-22T00:24:05;60;54;
70915;PMS5003;58557;50.982;-3.222;2023-02-22T00:26:31;52;47;
70915;PMS5003;58557;50.982;-3.222;2023-02-22T00:28:55;65;53;
70915;PMS5003;58557;50.982;-3.222;2023-02-22T00:31:21;78;61;
70915;PMS5003;58557;50.982;-3.222;2023-02-22T00:33:46;64;60;
70915;PMS5003;58557;50.982;-3.222;2023-02-22T00:36:11;67;58;
70915;PMS5003;58557;50.982;-3.222;2023-02-22T00:38:37;68;60;
70915;PMS5003;58557;50.982;-3.222;2023-02-22T00:41:03;66;54;
70915;PMS5003;58557;50.982;-3.222;2023-02-22T00:43:28;70;58;
70915;PMS5003;58557;50.982;-3.222;2023-02-22T00:45:53;66;56;
70915;PMS5003;58557;50.982;-3.222;2023-02-22T00:48:18;73;58;
70915;PMS5003;58557;50.982;-3.222;2023-02-22T00:50:44;67;60;
70915;PMS5003;58557;50.982;-3.222;2023-02-22T00:53:09;67;61;
70915;PMS5003;58557;50.982;-3.222;2023-02-22T00:55:35;72;64;
70915;PMS5003;58557;50.982;-3.222;2023-02-22T00:58:00;78;71;
70915;PMS5003;58557;50.982;-3.222;2023-02-22T01:00:26;71;63;
70915;PMS5003;58557;50.982;-3.222;2023-02-22T01:02:50;72;58;
70915;PMS5003;58557;50.982;-3.222;2023-02-22T01:05:17;64;58;
70915;PMS5003;58557;50.982;-3.222;2023-02-22T01:07:41;59;55;
70915;PMS5003;58557;50.982;-3.222;2023-02-22T01:10:07;77;62;
70915;PMS5003;58557;50.982;-3.222;2023-02-22T01:12:32;75;67;
70915;PMS5003;58557;50.982;-3.222;2023-02-22T01:14:58;74;67;
70915;PMS5003;58557;50.982;-3.222;2023-02-22T01:17:24;71;59;
70915;PMS5003;58557;50.982;-3.222;2023-02-22T01:19:49;66;60;
70915;PMS5003;58557;50.982;-3.222;2023-02-22T01:22:15;68;60;
70915;PMS5003;58557;50.982;-3.222;2023-02-22T01:24:41;70;59;
70915;PMS5003;58557;50.982;-3.222;2023-02-22T01:27:06;69;61;
70915;PMS5003;58557;50.982;-3.222;2023-02-22T01:29:31;68;58;
70915;PMS5003;58557;50.982;-3.222;2023-02-22T01:31:57;78;66;
70915;PMS5003;58557;50.982;-3.222;2023-02-22T01:34:23;75;63;
70915;PMS5003;58557;50.982;-3.222;2023-02-22T01:36:48;73;66;
70915;PMS5003;58557;50.982;-3.222;2023-02-22T01:39:14;74;66;
70915;PMS5003;58557;50.982;-3.222;2023-02-22T01:41:39;66;62;
70915;PMS5003;58557;50.982;-3.222;2023-02-22T01:46:30;72;61;
70915;PMS5003;58557;50.982;-3.222;2023-02-22T01:48:57;80;66;
70915;PMS5003;58557;50.982;-3.222;2023-02-22T01:51:22;66;56;
70915;PMS5003;58557;50.982;-3.222;2023-02-22T01:53:48;72;60;
70915;PMS5003;58557;50.982;-3.222;2023-02-22T01:56:13;75;67;
70915;PMS5003;58557;50.982;-3.222;2023-02-22T01:58:39;70;63;
70915;PMS5003;58557;50.982;-3.222;2023-02-22T02:01:04;65;57;
70915;PMS5003;58557;50.982;-3.222;2023-02-22T02:03:29;76;67;
70915;PMS5003;58557;50.982;-3.222;2023-02-22T02:05:55;63;58;
70915;PMS5003;58557;50.982;-3.222;2023-02-22T02:08:22;71;64;
70915;PMS5003;58557;50.982;-3.222;2023-02-22T02:10:45;61;59;
70915;PMS5003;58557;50.982;-3.222;2023-02-22T02:13:11;82;74;
70915;PMS5003;58557;50.982;-3.222;2023-02-22T02:15:36;69;67;
70915;PMS5003;58557;50.982;-3.222;2023-02-22T02:18:03;73;65;
70915;PMS5003;58557;50.982;-3.222;2023-02-22T02:20:28;71;64;
70915;PMS5003;58557;50.982;-3.222;2023-02-22T02:22:53;71;65;
70915;PMS5003;58557;50.982;-3.222;2023-02-22T02:27:55;59;55;
70915;PMS5003;58557;50.982;-3.222;2023-02-22T02:30:14;70;60;
70915;PMS5003;58557;50.982;-3.222;2023-02-22T02:32:35;73;61;
70915;PMS5003;58557;50.982;-3.222;2023-02-22T02:35:01;67;60;
70915;PMS5003;58557;50.982;-3.222;2023-02-22T02:37:27;83;74;
70915;PMS5003;58557;50.982;-3.222;2023-02-22T02:39:52;76;70;
70915;PMS5003;58557;50.982;-3.222;2023-02-22T02:42:18;74;62;
70915;PMS5003;58557;50.982;-3.222;2023-02-22T02:44:43;69;59;
70915;PMS5003;58557;50.982;-3.222;2023-02-22T02:47:08;78;70;
70915;PMS5003;58557;50.982;-3.222;2023-02-22T02:49:33;69;62;
70915;PMS5003;58557;50.982;-3.222;2023-02-22T02:51:57;75;67;
70915;PMS5003;58557;50.982;-3.222;2023-02-22T02:54:22;73;58;
70915;PMS5003;58557;50.982;-3.222;2023-02-22T02:56:48;66;63;
70915;PMS5003;58557;50.982;-3.222;2023-02-22T03:01:44;69;61;
70915;PMS5003;58557;50.982;-3.222;2023-02-22T03:04:07;69;59;
70915;PMS5003;58557;50.982;-3.222;2023-02-22T03:06:35;63;54;
70915;PMS5003;58557;50.982;-3.222;2023-02-22T03:08:56;72;67;
70915;PMS5003;58557;50.982;-3.222;2023-02-22T03:11:20;69;62;
70915;PMS5003;58557;50.982;-3.222;2023-02-22T03:13:49;70;68;
70915;PMS5003;58557;50.982;-3.222;2023-02-22T03:16:13;71;60;
70915;PMS5003;58557;50.982;-3.222;2023-02-22T03:18:38;56;52;
70915;PMS5003;58557;50.982;-3.222;2023-02-22T03:21:06;67;51;
70915;PMS5003;58557;50.982;-3.222;2023-02-22T03:23:28;75;65;
70915;PMS5003;58557;50.982;-3.222;2023-02-22T03:25:54;69;65;
70915;PMS5003;58557;50.982;-3.222;2023-02-22T03:28:19;67;61;
70915;PMS5003;58557;50.982;-3.222;2023-02-22T03:30:45;65;60;
70915;PMS5003;58557;50.982;-3.222;2023-02-22T03:33:10;73;63;
70915;PMS5003;58557;50.982;-3.222;2023-02-22T03:35:36;58;55;
70915;PMS5003;58557;50.982;-3.222;2023-02-22T03:38:02;73;69;
70915;PMS5003;58557;50.982;-3.222;2023-02-22T03:40:27;73;63;
70915;PMS5003;58557;50.982;-3.222;2023-02-22T03:42:53;70;54;
70915;PMS5003;58557;50.982;-3.222;2023-02-22T03:45:18;64;59;
70915;PMS5003;58557;50.982;-3.222;2023-02-22T03:47:45;72;65;
70915;PMS5003;58557;50.982;-3.222;2023-02-22T03:50:10;67;58;
70915;PMS5003;58557;50.982;-3.222;2023-02-22T03:52:34;70;64;
70915;PMS5003;58557;50.982;-3.222;2023-02-22T03:55:00;71;66;
70915;PMS5003;58557;50.982;-3.222;2023-02-22T03:57:26;83;69;
70915;PMS5003;58557;50.982;-3.222;2023-02-22T03:59:51;62;56;
70915;PMS5003;58557;50.982;-3.222;2023-02-22T04:02:17;64;57;
70915;PMS5003;58557;50.982;-3.222;2023-02-22T04:04:42;75;60;
70915;PMS5003;58557;50.982;-3.222;2023-02-22T04:07:08;65;59;
70915;PMS5003;58557;50.982;-3.222;2023-02-22T04:09:34;60;53;
70915;PMS5003;58557;50.982;-3.222;2023-02-22T04:11:59;69;54;
70915;PMS5003;58557;50.982;-3.222;2023-02-22T04:14:24;67;58;
70915;PMS5003;58557;50.982;-3.222;2023-02-22T04:16:50;67;63;
70915;PMS5003;58557;50.982;-3.222;2023-02-22T04:19:15;71;63;
70915;PMS5003;58557;50.982;-3.222;2023-02-22T04:21:41;58;54;
70915;PMS5003;58557;50.982;-3.222;2023-02-22T04:24:06;58;51;
70915;PMS5003;58557;50.982;-3.222;2023-02-22T04:26:32;59;47;
70915;PMS5003;58557;50.982;-3.222;2023-02-22T04:28:57;54;49;
70915;PMS5003;58557;50.982;-3.222;2023-02-22T04:31:23;41;38;
70915;PMS5003;58557;50.982;-3.222;2023-02-22T04:33:48;42;36;
70915;PMS5003;58557;50.982;-3.222;2023-02-22T04:36:14;47;43;
70915;PMS5003;58557;50.982;-3.222;2023-02-22T04:38:39;47;38;
70915;PMS5003;58557;50.982;-3.222;2023-02-22T04:41:04;42;34;
70915;PMS5003;58557;50.982;-3.222;2023-02-22T04:43:30;48;47;
70915;PMS5003;58557;50.982;-3.222;2023-02-22T04:45:55;51;41;
70915;PMS5003;58557;50.982;-3.222;2023-02-22T04:48:21;47;37;
70915;PMS5003;58557;50.982;-3.222;2023-02-22T04:50:47;47;37;
70915;PMS5003;58557;50.982;-3.222;2023-02-22T04:53:12;46;37;
70915;PMS5003;58557;50.982;-3.222;2023-02-22T04:55:37;37;36;
70915;PMS5003;58557;50.982;-3.222;2023-02-22T04:58:03;49;43;
70915;PMS5003;58557;50.982;-3.222;2023-02-22T05:00:28;48;42;
70915;PMS5003;58557;50.982;-3.222;2023-02-22T05:02:54;44;41;
70915;PMS5003;58557;50.982;-3.222;2023-02-22T05:05:20;51;41;
70915;PMS5003;58557;50.982;-3.222;2023-02-22T05:07:45;50;42;
70915;PMS5003;58557;50.982;-3.222;2023-02-22T05:10:10;52;41;
70915;PMS5003;58557;50.982;-3.222;2023-02-22T05:12:36;46;41;
70915;PMS5003;58557;50.982;-3.222;2023-02-22T05:15:01;41;38;
70915;PMS5003;58557;50.982;-3.222;2023-02-22T05:17:26;38;34;
70915;PMS5003;58557;50.982;-3.222;2023-02-22T05:19:52;41;33;
70915;PMS5003;58557;50.982;-3.222;2023-02-22T05:22:17;40;31;
70915;PMS5003;58557;50.982;-3.222;2023-02-22T05:24:42;31;29;
70915;PMS5003;58557;50.982;-3.222;2023-02-22T05:27:08;39;33;
70915;PMS5003;58557;50.982;-3.222;2023-02-22T05:29:33;40;35;
70915;PMS5003;58557;50.982;-3.222;2023-02-22T05:31:58;32;30;
70915;PMS5003;58557;50.982;-3.222;2023-02-22T05:34:24;37;31;
70915;PMS5003;58557;50.982;-3.222;2023-02-22T05:36:50;49;34;
70915;PMS5003;58557;50.982;-3.222;2023-02-22T05:39:15;32;29;
70915;PMS5003;58557;50.982;-3.222;2023-02-22T05:41:40;48;38;
70915;PMS5003;58557;50.982;-3.222;2023-02-22T05:44:06;26;26;
70915;PMS5003;58557;50.982;-3.222;2023-02-22T05:46:31;39;34;
70915;PMS5003;58557;50.982;-3.222;2023-02-22T05:48:57;36;30;
70915;PMS5003;58557;50.982;-3.222;2023-02-22T05:51:22;36;33;
70915;PMS5003;58557;50.982;-3.222;2023-02-22T05:53:47;40;32;
70915;PMS5003;58557;50.982;-3.222;2023-02-22T05:56:18;33;28;
70915;PMS5003;58557;50.982;-3.222;2023-02-22T05:58:39;35;32;
70915;PMS5003;58557;50.982;-3.222;2023-02-22T06:01:04;29;23;
70915;PMS5003;58557;50.982;-3.222;2023-02-22T06:03:30;33;30;
70915;PMS5003;58557;50.982;-3.222;2023-02-22T06:05:56;29;28;
70915;PMS5003;58557;50.982;-3.222;2023-02-22T06:08:21;34;32;
70915;PMS5003;58557;50.982;-3.222;2023-02-22T06:10:46;30;28;
70915;PMS5003;58557;50.982;-3.222;2023-02-22T06:13:12;29;22;
70915;PMS5003;58557;50.982;-3.222;2023-02-22T06:15:37;32;30;
70915;PMS5003;58557;50.982;-3.222;2023-02-22T06:18:03;30;27;
70915;PMS5003;58557;50.982;-3.222;2023-02-22T06:20:28;39;29;
70915;PMS5003;58557;50.982;-3.222;2023-02-22T06:22:54;30;27;
70915;PMS5003;58557;50.982;-3.222;2023-02-22T06:25:19;38;30;
70915;PMS5003;58557;50.982;-3.222;2023-02-22T06:27:44;36;33;
70915;PMS5003;58557;50.982;-3.222;2023-02-22T06:30:11;31;25;
70915;PMS5003;58557;50.982;-3.222;2023-02-22T06:32:35;36;29;
70915;PMS5003;58557;50.982;-3.222;2023-02-22T06:35:01;31;28;
70915;PMS5003;58557;50.982;-3.222;2023-02-22T06:37:26;33;27;
70915;PMS5003;58557;50.982;-3.222;2023-02-22T06:39:52;31;28;
70915;PMS5003;58557;50.982;-3.222;2023-02-22T06:42:17;28;25;
70915;PMS5003;58557;50.982;-3.222;2023-02-22T06:44:43;42;39;
70915;PMS5003;58557;50.982;-3.222;2023-02-22T06:47:08;35;33;
70915;PMS5003;58557;50.982;-3.222;2023-02-22T06:49:34;41;35;
70915;PMS5003;58557;50.982;-3.222;2023-02-22T06:51:59;35;28;
70915;PMS5003;58557;50.982;-3.222;2023-02-22T06:54:25;31;28;
70915;PMS5003;58557;50.982;-3.222;2023-02-22T06:56:50;30;26;
70915;PMS5003;58557;50.982;-3.222;2023-02-22T06:59:16;34;34;
70915;PMS5003;58557;50.982;-3.222;2023-02-22T07:01:41;33;32;
70915;PMS5003;58557;50.982;-3.222;2023-02-22T07:04:06;35;33;
70915;PMS5003;58557;50.982;-3.222;2023-02-22T07:06:31;37;33;
70915;PMS5003;58557;50.982;-3.222;2023-02-22T07:08:56;27;24;
70915;PMS5003;58557;50.982;-3.222;2023-02-22T07:11:22;36;29;
70915;PMS5003;58557;50.982;-3.222;2023-02-22T07:13:47;33;28;
70915;PMS5003;58557;50.982;-3.222;2023-02-22T07:16:13;32;28;
70915;PMS5003;58557;50.982;-3.222;2023-02-22T07:18:38;31;24;
70915;PMS5003;58557;50.982;-3.222;2023-02-22T07:21:04;23;21;
70915;PMS5003;58557;50.982;-3.222;2023-02-22T07:23:29;24;21;
70915;PMS5003;58557;50.982;-3.222;2023-02-22T07:25:55;34;25;
70915;PMS5003;58557;50.982;-3.222;2023-02-22T07:28:20;23;21;
70915;PMS5003;58557;50.982;-3.222;2023-02-22T07:30:46;20;20;
70915;PMS5003;58557;50.982;-3.222;2023-02-22T07:33:11;18;16;
70915;PMS5003;58557;50.982;-3.222;2023-02-22T07:35:38;22;18;
70915;PMS5003;58557;50.982;-3.222;2023-02-22T07:38:03;18;16;
70915;PMS5003;58557;50.982;-3.222;2023-02-22T07:40:28;20;16;
70915;PMS5003;58557;50.982;-3.222;2023-02-22T07:42:54;21;16;
70915;PMS5003;58557;50.982;-3.222;2023-02-22T07:45:19;15;12;
70915;PMS5003;58557;50.982;-3.222;2023-02-22T07:47:44;15;14;
70915;PMS5003;58557;50.982;-3.222;2023-02-22T07:50:11;14;11;
70915;PMS5003;58557;50.982;-3.222;2023-02-22T07:52:36;16;14;
70915;PMS5003;58557;50.982;-3.222;2023-02-22T07:55:01;19;17;
70915;PMS5003;58557;50.982;-3.222;2023-02-22T07:57:26;19;15;
70915;PMS5003;58557;50.982;-3.222;2023-02-22T07:59:52;10;10;
70915;PMS5003;58557;50.982;-3.222;2023-02-22T08:02:17;14;11;
70915;PMS5003;58557;50.982;-3.222;2023-02-22T08:04:43;9;9;
70915;PMS5003;58557;50.982;-3.222;2023-02-22T08:07:08;11;11;
70915;PMS5003;58557;50.982;-3.222;2023-02-22T08:09:33;10;8;
70915;PMS5003;58557;50.982;-3.222;2023-02-22T08:11:59;8;7;
70915;PMS5003;58557;50.982;-3.222;2023-02-22T08:14:24;5;4;
70915;PMS5003;58557;50.982;-3.222;2023-02-22T08:16:49;1;1;
70915;PMS5003;58557;50.982;-3.222;2023-02-22T08:19:15;0;0;
70915;PMS5003;58557;50.982;-3.222;2023-02-22T08:21:41;0;0;
70915;PMS5003;58557;50.982;-3.222;2023-02-22T08:24:07;3;1;
70915;PMS5003;58557;50.982;-3.222;2023-02-22T08:26:32;0;0;
70915;PMS5003;58557;50.982;-3.222;2023-02-22T08:28:58;0;0;
70915;PMS5003;58557;50.982;-3.222;2023-02-22T08:31:23;1;1;
70915;PMS5003;58557;50.982;-3.222;2023-02-22T08:33:48;0;0;
70915;PMS5003;58557;50.982;-3.222;2023-02-22T08:36:14;0;0;
70915;PMS5003;58557;50.982;-3.222;2023-02-22T08:38:39;0;0;
70915;PMS5003;58557;50.982;-3.222;2023-02-22T08:41:04;0;0;
70915;PMS5003;58557;50.982;-3.222;2023-02-22T08:43:30;1;1;
70915;PMS5003;58557;50.982;-3.222;2023-02-22T08:45:55;2;1;
70915;PMS5003;58557;50.982;-3.222;2023-02-22T08:48:22;1;1;
70915;PMS5003;58557;50.982;-3.222;2023-02-22T08:50:47;2;1;
70915;PMS5003;58557;50.982;-3.222;2023-02-22T08:53:12;0;0;
70915;PMS5003;58557;50.982;-3.222;2023-02-22T08:55:38;1;1;
70915;PMS5003;58557;50.982;-3.222;2023-02-22T08:58:04;1;1;
70915;PMS5003;58557;50.982;-3.222;2023-02-22T09:00:30;0;0;
70915;PMS5003;58557;50.982;-3.222;2023-02-22T09:02:54;1;1;
70915;PMS5003;58557;50.982;-3.222;2023-02-22T09:05:20;1;1;
70915;PMS5003;58557;50.982;-3.222;2023-02-22T09:07:45;1;1;
70915;PMS5003;58557;50.982;-3.222;2023-02-22T09:10:10;1;1;
70915;PMS5003;58557;50.982;-3.222;2023-02-22T09:12:36;0;0;
70915;PMS5003;58557;50.982;-3.222;2023-02-22T09:15:02;1;0;
70915;PMS5003;58557;50.982;-3.222;2023-02-22T09:17:28;0;0;
70915;PMS5003;58557;50.982;-3.222;2023-02-22T09:19:53;3;1;
70915;PMS5003;58557;50.982;-3.222;2023-02-22T09:22:18;1;1;
70915;PMS5003;58557;50.982;-3.222;2023-02-22T09:24:44;0;0;
70915;PMS5003;58557;50.982;-3.222;2023-02-22T09:27:10;1;1;
70915;PMS5003;58557;50.982;-3.222;2023-02-22T09:29:36;2;0;
70915;PMS5003;58557;50.982;-3.222;2023-02-22T09:32:02;0;0;
70915;PMS5003;58557;50.982;-3.222;2023-02-22T09:34:28;1;1;
70915;PMS5003;58557;50.982;-3.222;2023-02-22T09:36:54;2;1;
70915;PMS5003;58557;50.982;-3.222;2023-02-22T09:39:19;1;1;
70915;PMS5003;58557;50.982;-3.222;2023-02-22T09:41:47;1;1;
70915;PMS5003;58557;50.982;-3.222;2023-02-22T09:44:14;2;1;
70915;PMS5003;58557;50.982;-3.222;2023-02-22T09:46:36;1;1;
70915;PMS5003;58557;50.982;-3.222;2023-02-22T09:49:03;1;1;
70915;PMS5003;58557;50.982;-3.222;2023-02-22T09:51:28;2;0;
70915;PMS5003;58557;50.982;-3.222;2023-02-22T09:53:54;0;0;
70915;PMS5003;58557;50.982;-3.222;2023-02-22T09:56:18;1;0;
70915;PMS5003;58557;50.982;-3.222;2023-02-22T09:58:44;0;0;
70915;PMS5003;58557;50.982;-3.222;2023-02-22T10:01:13;0;0;
70915;PMS5003;58557;50.982;-3.222;2023-02-22T10:03:35;0;0;
70915;PMS5003;58557;50.982;-3.222;2023-02-22T10:06:01;1;1;
70915;PMS5003;58557;50.982;-3.222;2023-02-22T10:08:27;1;1;
70915;PMS5003;58557;50.982;-3.222;2023-02-22T10:10:51;1;1;
70915;PMS5003;58557;50.982;-3.222;2023-02-22T10:13:20;1;1;
70915;PMS5003;58557;50.982;-3.222;2023-02-22T10:15:44;0;0;
70915;PMS5003;58557;50.982;-3.222;2023-02-22T10:20:38;0;0;
70915;PMS5003;58557;50.982;-3.222;2023-02-22T10:23:02;2;1;
70915;PMS5003;58557;50.982;-3.222;2023-02-22T10:25:25;1;1;
70915;PMS5003;58557;50.982;-3.222;2023-02-22T10:27:52;2;1;
70915;PMS5003;58557;50.982;-3.222;2023-02-22T10:30:18;2;0;
70915;PMS5003;58557;50.982;-3.222;2023-02-22T10:32:42;1;1;
70915;PMS5003;58557;50.982;-3.222;2023-02-22T10:37:33;1;1;
70915;PMS5003;58557;50.982;-3.222;2023-02-22T10:40:00;0;0;
70915;PMS5003;58557;50.982;-3.222;2023-02-22T10:42:24;0;0;
70915;PMS5003;58557;50.982;-3.222;2023-02-22T10:44:49;1;0;
70915;PMS5003;58557;50.982;-3.222;2023-02-22T10:47:14;5;5;
70915;PMS5003;58557;50.982;-3.222;2023-02-22T10:49:40;2;1;
70915;PMS5003;58557;50.982;-3.222;2023-02-22T10:52:13;2;1;
70915;PMS5003;58557;50.982;-3.222;2023-02-22T10:54:32;4;1;
70915;PMS5003;58557;50.982;-3.222;2023-02-22T10:56:56;1;1;
70915;PMS5003;58557;50.982;-3.222;2023-02-22T10:59:27;1;0;
70915;PMS5003;58557;50.982;-3.222;2023-02-22T11:01:48;4;4;
70915;PMS5003;58557;50.982;-3.222;2023-02-22T11:04:14;2;1;
70915;PMS5003;58557;50.982;-3.222;2023-02-22T11:06:40;4;4;
70915;PMS5003;58557;50.982;-3.222;2023-02-22T11:09:06;0;0;
70915;PMS5003;58557;50.982;-3.222;2023-02-22T11:11:29;0;0;
70915;PMS5003;58557;50.982;-3.222;2023-02-22T11:13:55;0;0;
70915;PMS5003;58557;50.982;-3.222;2023-02-22T11:16:25;0;0;
70915;PMS5003;58557;50.982;-3.222;2023-02-22T11:18:46;0;0;
70915;PMS5003;58557;50.982;-3.222;2023-02-22T11:21:12;0;0;
70915;PMS5003;58557;50.982;-3.222;2023-02-22T11:23:38;0;0;
70915;PMS5003;58557;50.982;-3.222;2023-02-22T11:26:05;2;1;
70915;PMS5003;58557;50.982;-3.222;2023-02-22T11:28:28;1;1;
70915;PMS5003;58557;50.982;-3.222;2023-02-22T11:30:54;0;0;
70915;PMS5003;58557;50.982;-3.222;2023-02-22T11:33:20;0;0;
70915;PMS5003;58557;50.982;-3.222;2023-02-22T11:35:48;0;0;
70915;PMS5003;58557;50.982;-3.222;2023-02-22T11:38:14;1;1;
70915;PMS5003;58557;50.982;-3.222;2023-02-22T11:40:36;1;0;
70915;PMS5003;58557;50.982;-3.222;2023-02-22T11:43:05;0;0;
70915;PMS5003;58557;50.982;-3.222;2023-02-22T11:45:27;0;0;
70915;PMS5003;58557;50.982;-3.222;2023-02-22T11:47:53;0;0;
70915;PMS5003;58557;50.982;-3.222;2023-02-22T11:50:21;1;1;
70915;PMS5003;58557;50.982;-3.222;2023-02-22T11:52:44;1;1;
70915;PMS5003;58557;50.982;-3.222;2023-02-22T11:55:13;1;1;
70915;PMS5003;58557;50.982;-3.222;2023-02-22T11:57:38;0;0;
70915;PMS5003;58557;50.982;-3.222;2023-02-22T12:00:03;1;0;
70915;PMS5003;58557;50.982;-3.222;2023-02-22T12:02:28;0;0;
70915;PMS5003;58557;50.982;-3.222;2023-02-22T12:04:58;0;0;
70915;PMS5003;58557;50.982;-3.222;2023-02-22T12:07:21;1;1;
70915;PMS5003;58557;50.982;-3.222;2023-02-22T12:09:44;2;1;
70915;PMS5003;58557;50.982;-3.222;2023-02-22T12:12:11;1;1;
70915;PMS5003;58557;50.982;-3.222;2023-02-22T12:14:36;0;0;
70915;PMS5003;58557;50.982;-3.222;2023-02-22T12:17:04;0;0;
70915;PMS5003;58557;50.982;-3.222;2023-02-22T12:19:26;1;0;
70915;PMS5003;58557;50.982;-3.222;2023-02-22T12:21:51;0;0;
70915;PMS5003;58557;50.982;-3.222;2023-02-22T12:24:16;1;1;
70915;PMS5003;58557;50.982;-3.222;2023-02-22T12:26:41;0;0;
70915;PMS5003;58557;50.982;-3.222;2023-02-22T12:29:08;0;0;
70915;PMS5003;58557;50.982;-3.222;2023-02-22T12:31:31;2;0;
70915;PMS5003;58557;50.982;-3.222;2023-02-22T12:33:58;3;0;
70915;PMS5003;58557;50.982;-3.222;2023-02-22T12:36:24;0;0;
70915;PMS5003;58557;50.982;-3.222;2023-02-22T12:38:49;1;1;
70915;PMS5003;58557;50.982;-3.222;2023-02-22T12:41:14;0;0;
70915;PMS5003;58557;50.982;-3.222;2023-02-22T12:43:40;0;0;
70915;PMS5003;58557;50.982;-3.222;2023-02-22T12:46:04;1;1;
70915;PMS5003;58557;50.982;-3.222;2023-02-22T12:48:32;1;1;
70915;PMS5003;58557;50.982;-3.222;2023-02-22T12:50:58;1;1;
70915;PMS5003;58557;50.982;-3.222;2023-02-22T12:53:22;2;0;
70915;PMS5003;58557;50.982;-3.222;2023-02-22T12:55:46;1;1;
70915;PMS5003;58557;50.982;-3.222;2023-02-22T12:58:16;1;0;
70915;PMS5003;58557;50.982;-3.222;2023-02-22T13:00:38;0;0;
70915;PMS5003;58557;50.982;-3.222;2023-02-22T13:03:03;1;1;
70915;PMS5003;58557;50.982;-3.222;2023-02-22T13:05:28;0;0;
70915;PMS5003;58557;50.982;-3.222;2023-02-22T13:07:57;1;1;
70915;PMS5003;58557;50.982;-3.222;2023-02-22T13:10:22;1;1;
70915;PMS5003;58557;50.982;-3.222;2023-02-22T13:12:46;2;2;
70915;PMS5003;58557;50.982;-3.222;2023-02-22T13:15:13;0;0;
70915;PMS5003;58557;50.982;-3.222;2023-02-22T13:17:37;1;1;
70915;PMS5003;58557;50.982;-3.222;2023-02-22T13:20:02;2;0;
70915;PMS5003;58557;50.982;-3.222;2023-02-22T13:22:28;1;1;
70915;PMS5003;58557;50.982;-3.222;2023-02-22T13:24:54;2;0;
70915;PMS5003;58557;50.982;-3.222;2023-02-22T13:27:18;2;2;
70915;PMS5003;58557;50.982;-3.222;2023-02-22T13:29:43;0;0;
70915;PMS5003;58557;50.982;-3.222;2023-02-22T13:32:12;0;0;
70915;PMS5003;58557;50.982;-3.222;2023-02-22T13:34:37;0;0;
70915;PMS5003;58557;50.982;-3.222;2023-02-22T13:37:04;2;0;
70915;PMS5003;58557;50.982;-3.222;2023-02-22T13:39:29;0;0;
70915;PMS5003;58557;50.982;-3.222;2023-02-22T13:41:50;0;0;
70915;PMS5003;58557;50.982;-3.222;2023-02-22T13:46:52;0;0;
70915;PMS5003;58557;50.982;-3.222;2023-02-22T13:49:11;2;0;
70915;PMS5003;58557;50.982;-3.222;2023-02-22T13:51:36;4;1;
70915;PMS5003;58557;50.982;-3.222;2023-02-22T13:53:58;2;1;
70915;PMS5003;58557;50.982;-3.222;2023-02-22T13:56:23;1;0;
70915;PMS5003;58557;50.982;-3.222;2023-02-22T13:58:49;0;0;
70915;PMS5003;58557;50.982;-3.222;2023-02-22T14:03:39;3;0;
70915;PMS5003;58557;50.982;-3.222;2023-02-22T14:06:06;0;0;
70915;PMS5003;58557;50.982;-3.222;2023-02-22T14:10:56;1;1;
70915;PMS5003;58557;50.982;-3.222;2023-02-22T14:13:21;1;1;
70915;PMS5003;58557;50.982;-3.222;2023-02-22T14:18:14;0;0;
70915;PMS5003;58557;50.982;-3.222;2023-02-22T14:20:37;0;0;
70915;PMS5003;58557;50.982;-3.222;2023-02-22T14:25:30;3;2;
70915;PMS5003;58557;50.982;-3.222;2023-02-22T14:27:53;1;0;
70915;PMS5003;58557;50.982;-3.222;2023-02-22T14:30:22;1;1;
70915;PMS5003;58557;50.982;-3.222;2023-02-22T14:32:44;2;0;
70915;PMS5003;58557;50.982;-3.222;2023-02-22T14:35:11;2;1;
70915;PMS5003;58557;50.982;-3.222;2023-02-22T14:37:35;2;1;
70915;PMS5003;58557;50.982;-3.222;2023-02-22T14:40:03;1;1;
70915;PMS5003;58557;50.982;-3.222;2023-02-22T14:42:27;0;0;
70915;PMS5003;58557;50.982;-3.222;2023-02-22T14:44:55;2;1;
70915;PMS5003;58557;50.982;-3.222;2023-02-22T14:47:18;2;1;
70915;PMS5003;58557;50.982;-3.222;2023-02-22T14:49:43;1;1;
70915;PMS5003;58557;50.982;-3.222;2023-02-22T14:52:14;0;0;
70915;PMS5003;58557;50.982;-3.222;2023-02-22T14:54:34;0;0;
70915;PMS5003;58557;50.982;-3.222;2023-02-22T14:57:02;1;1;
70915;PMS5003;58557;50.982;-3.222;2023-02-22T14:59:25;2;2;
70915;PMS5003;58557;50.982;-3.222;2023-02-22T15:04:15;2;1;
70915;PMS5003;58557;50.982;-3.222;2023-02-22T15:06:40;3;3;
70915;PMS5003;58557;50.982;-3.222;2023-02-22T15:09:07;1;1;
70915;PMS5003;58557;50.982;-3.222;2023-02-22T15:11:31;2;1;
70915;PMS5003;58557;50.982;-3.222;2023-02-22T15:13:57;1;1;
70915;PMS5003;58557;50.982;-3.222;2023-02-22T15:16:23;0;0;
70915;PMS5003;58557;50.982;-3.222;2023-02-22T15:18:48;1;1;
70915;PMS5003;58557;50.982;-3.222;2023-02-22T15:21:13;0;0;
70915;PMS5003;58557;50.982;-3.222;2023-02-22T15:23:39;0;0;
70915;PMS5003;58557;50.982;-3.222;2023-02-22T15:26:04;0;0;
70915;PMS5003;58557;50.982;-3.222;2023-02-22T15:28:29;2;0;
70915;PMS5003;58557;50.982;-3.222;2023-02-22T15:33:20;0;0;
70915;PMS5003;58557;50.982;-3.222;2023-02-22T15:35:51;1;1;
70915;PMS5003;58557;50.982;-3.222;2023-02-22T15:38:17;0;0;
70915;PMS5003;58557;50.982;-3.222;2023-02-22T15:40:38;2;1;
70915;PMS5003;58557;50.982;-3.222;2023-02-22T15:43:03;1;0;
70915;PMS5003;58557;50.982;-3.222;2023-02-22T15:45:28;0;0;
70915;PMS5003;58557;50.982;-3.222;2023-02-22T15:47:53;1;1;
70915;PMS5003;58557;50.982;-3.222;2023-02-22T15:50:20;0;0;
70915;PMS5003;58557;50.982;-3.222;2023-02-22T15:52:46;1;0;
70915;PMS5003;58557;50.982;-3.222;2023-02-22T15:55:09;1;1;
70915;PMS5003;58557;50.982;-3.222;2023-02-22T15:57:34;0;0;
70915;PMS5003;58557;50.982;-3.222;2023-02-22T16:00:00;0;0;
70915;PMS5003;58557;50.982;-3.222;2023-02-22T16:02:28;1;1;
70915;PMS5003;58557;50.982;-3.222;2023-02-22T16:04:54;1;1;
70915;PMS5003;58557;50.982;-3.222;2023-02-22T16:07:15;2;0;
70915;PMS5003;58557;50.982;-3.222;2023-02-22T16:09:44;1;0;
70915;PMS5003;58557;50.982;-3.222;2023-02-22T16:12:06;1;1;
70915;PMS5003;58557;50.982;-3.222;2023-02-22T16:14:38;2;1;
70915;PMS5003;58557;50.982;-3.222;2023-02-22T16:19:28;1;0;
70915;PMS5003;58557;50.982;-3.222;2023-02-22T16:21:50;1;0;
70915;PMS5003;58557;50.982;-3.222;2023-02-22T16:26:37;1;1;
70915;PMS5003;58557;50.982;-3.222;2023-02-22T16:29:03;1;1;
70915;PMS5003;58557;50.982;-3.222;2023-02-22T16:31:29;2;1;
70915;PMS5003;58557;50.982;-3.222;2023-02-22T16:33:53;2;1;
70915;PMS5003;58557;50.982;-3.222;2023-02-22T16:36:24;0;0;
70915;PMS5003;58557;50.982;-3.222;2023-02-22T16:38:45;2;2;
70915;PMS5003;58557;50.982;-3.222;2023-02-22T16:41:10;4;3;